Time;durP1;ratioP1;P1;durP2;ratioP2;P2;SDS_P1;SDS_P2;PMS_P1;PMS_P2;Temp;Humidity;BMP_temperature;BMP_pressure;BME280_temperature;BME280_humidity;BME280_pressure;Samples;Min_cycle;Max_cycle;Signal;HPM_P1;HPM_P2
2023/10/02 00:01:58;;;;;;;23.10;10.18;;;;;;;;;;5114207;28;20149;-40
2023/10/02 00:04:24;;;;;;;21.08;9.75;;;;;;;;;;5114441;28;20043;-41
2023/10/02 00:07:05;;;;;;;22.13;9.20;;;;;;;;;;5113909;28;20481;-43
2023/10/02 00:09:33;;;;;;;20.75;9.15;;;;;;;;;;5114085;28;20008;-40
2023/10/02 00:12:01;;;;;;;23.67;9.13;;;;;;;;;;5113852;28;20475;-40
2023/10/02 00:14:34;;;;;;;20.60;9.25;;;;;;;;;;5113809;28;20020;-40
2023/10/02 00:17:14;;;;;;;23.17;9.73;;;;;;;;;;5113902;28;20027;-40
2023/10/02 00:19:44;;;;;;;23.65;9.93;;;;;;;;;;5117847;28;20023;-40
2023/10/02 00:22:09;;;;;;;23.98;9.52;;;;;;;;;;5118334;28;20035;-39
2023/10/02 00:24:35;;;;;;;23.07;9.10;;;;;;;;;;5118316;28;20446;-40
2023/10/02 00:27:01;;;;;;;22.30;9.70;;;;;;;;;;5118042;28;20291;-40
2023/10/02 00:29:26;;;;;;;24.48;9.75;;;;;;;;;;5118772;28;20027;-40
2023/10/02 00:31:52;;;;;;;21.88;9.68;;;;;;;;;;5118680;28;20103;-40
2023/10/02 00:34:30;;;;;;;24.77;9.77;;;;;;;;;;5118166;28;20018;-40
2023/10/02 00:36:55;;;;;;;23.08;10.27;;;;;;;;;;5118165;28;20072;-40
2023/10/02 00:39:33;;;;;;;21.43;10.20;;;;;;;;;;5117800;28;20024;-40
2023/10/02 00:42:17;;;;;;;23.88;10.07;;;;;;;;;;5117948;28;20253;-40
2023/10/02 00:44:52;;;;;;;25.42;10.07;;;;;;;;;;5117944;28;20032;-39
2023/10/02 00:47:42;;;;;;;23.38;10.27;;;;;;;;;;5117623;28;20062;-40
2023/10/02 00:50:10;;;;;;;24.58;10.30;;;;;;;;;;5117825;28;20036;-40
2023/10/02 00:52:41;;;;;;;21.25;9.95;;;;;;;;;;5117469;28;20016;-41
2023/10/02 00:55:15;;;;;;;23.67;10.30;;;;;;;;;;5117792;28;20024;-41
2023/10/02 00:57:41;;;;;;;26.25;10.63;;;;;;;;;;5117635;28;20110;-41
2023/10/02 01:00:16;;;;;;;23.42;10.27;;;;;;;;;;5117644;28;20020;-41
2023/10/02 01:02:42;;;;;;;24.23;9.77;;;;;;;;;;5117237;28;20031;-41
2023/10/02 01:05:14;;;;;;;22.58;10.02;;;;;;;;;;5117850;28;20012;-40
2023/10/02 01:07:40;;;;;;;23.08;9.77;;;;;;;;;;5117583;28;20351;-40
2023/10/02 01:10:07;;;;;;;22.08;10.07;;;;;;;;;;5117446;28;20016;-41
2023/10/02 01:12:43;;;;;;;20.80;9.93;;;;;;;;;;5117472;28;20015;-40
2023/10/02 01:15:11;;;;;;;22.48;9.52;;;;;;;;;;5116910;28;20018;-41
2023/10/02 01:17:37;;;;;;;24.58;9.82;;;;;;;;;;5098730;28;20024;-45
2023/10/02 01:20:08;;;;;;;24.17;9.18;;;;;;;;;;5117264;28;20027;-41
2023/10/02 01:22:38;;;;;;;23.20;9.65;;;;;;;;;;5117262;28;20018;-40
2023/10/02 01:25:13;;;;;;;22.40;9.52;;;;;;;;;;5117476;28;20019;-41
2023/10/02 01:27:46;;;;;;;25.10;10.00;;;;;;;;;;5117088;28;20027;-41
2023/10/02 01:30:15;;;;;;;27.02;10.30;;;;;;;;;;5115835;28;20015;-41
2023/10/02 01:33:06;;;;;;;29.67;9.98;;;;;;;;;;5117004;28;20020;-40
2023/10/02 01:35:32;;;;;;;22.42;9.63;;;;;;;;;;5116702;28;20051;-41
2023/10/02 01:37:58;;;;;;;23.33;9.45;;;;;;;;;;5117191;28;20023;-41
2023/10/02 01:40:33;;;;;;;23.77;10.23;;;;;;;;;;5116678;28;20142;-40
2023/10/02 01:43:12;;;;;;;24.67;10.57;;;;;;;;;;5116839;28;20032;-40
2023/10/02 01:45:42;;;;;;;22.25;9.93;;;;;;;;;;5116715;28;20016;-41
2023/10/02 01:48:08;;;;;;;21.48;10.00;;;;;;;;;;5116314;28;20044;-40
2023/10/02 01:50:36;;;;;;;21.77;9.75;;;;;;;;;;5117432;28;20454;-41
2023/10/02 01:53:05;;;;;;;25.42;10.40;;;;;;;;;;5116339;28;20020;-41
2023/10/02 01:55:31;;;;;;;22.35;10.20;;;;;;;;;;5116880;28;20016;-41
2023/10/02 01:57:56;;;;;;;20.63;9.48;;;;;;;;;;5116837;28;20015;-41
2023/10/02 02:00:24;;;;;;;22.23;9.07;;;;;;;;;;5116162;28;20069;-41
2023/10/02 02:03:14;;;;;;;23.85;10.00;;;;;;;;;;5116445;28;20720;-43
2023/10/02 02:05:34;;;;;;;20.95;9.65;;;;;;;;;;5115988;28;20028;-41
2023/10/02 02:08:21;;;;;;;23.23;9.90;;;;;;;;;;5116053;28;20106;-41
2023/10/02 02:10:46;;;;;;;26.08;10.48;;;;;;;;;;5116610;28;20016;-41
2023/10/02 02:13:11;;;;;;;22.25;10.20;;;;;;;;;;5116195;28;20091;-41
2023/10/02 02:15:38;;;;;;;27.30;10.23;;;;;;;;;;5116133;28;20039;-41
2023/10/02 02:18:04;;;;;;;20.67;9.65;;;;;;;;;;5116182;28;20454;-41
2023/10/02 02:20:44;;;;;;;23.33;10.00;;;;;;;;;;5116533;28;20016;-41
2023/10/02 02:23:14;;;;;;;22.85;10.50;;;;;;;;;;5115708;28;20011;-40
2023/10/02 02:25:39;;;;;;;22.55;9.80;;;;;;;;;;5115989;28;20028;-41
2023/10/02 02:28:06;;;;;;;24.60;9.60;;;;;;;;;;5116278;28;20029;-40
2023/10/02 02:30:40;;;;;;;20.23;9.48;;;;;;;;;;5115898;28;20019;-41
2023/10/02 02:33:07;;;;;;;30.50;10.23;;;;;;;;;;5115858;28;20026;-40
2023/10/02 02:35:35;;;;;;;23.25;10.18;;;;;;;;;;5116670;28;20019;-41
2023/10/02 02:38:02;;;;;;;22.35;9.45;;;;;;;;;;5115787;28;20476;-40
2023/10/02 02:40:29;;;;;;;24.73;9.80;;;;;;;;;;5096960;28;20022;-41
2023/10/02 02:42:56;;;;;;;24.83;10.55;;;;;;;;;;5115700;28;20474;-40
2023/10/02 02:45:28;;;;;;;23.95;10.57;;;;;;;;;;5115334;28;20080;-40
2023/10/02 02:47:54;;;;;;;22.73;10.02;;;;;;;;;;5115136;28;20048;-41
2023/10/02 02:50:27;;;;;;;25.38;10.40;;;;;;;;;;5115484;28;20103;-41
2023/10/02 02:53:16;;;;;;;24.83;9.73;;;;;;;;;;5115444;28;20095;-41
2023/10/02 02:55:38;;;;;;;24.88;10.35;;;;;;;;;;5115002;28;20026;-40
2023/10/02 02:58:03;;;;;;;21.63;10.10;;;;;;;;;;5115602;28;20388;-40
2023/10/02 03:00:31;;;;;;;31.75;10.70;;;;;;;;;;5115317;28;20734;-41
2023/10/02 03:03:00;;;;;;;25.77;10.18;;;;;;;;;;5115218;28;20024;-40
2023/10/02 03:05:37;;;;;;;24.73;10.48;;;;;;;;;;5115229;28;20019;-40
2023/10/02 03:08:05;;;;;;;26.80;11.30;;;;;;;;;;5115125;28;20026;-40
2023/10/02 03:10:36;;;;;;;22.55;10.25;;;;;;;;;;5114729;28;20016;-40
2023/10/02 03:13:02;;;;;;;27.83;10.30;;;;;;;;;;5114720;28;20019;-41
2023/10/02 03:15:45;;;;;;;27.55;10.82;;;;;;;;;;5114669;28;20012;-41
2023/10/02 03:18:23;;;;;;;22.67;10.10;;;;;;;;;;5114983;28;20050;-40
2023/10/02 03:21:43;;;;;;;24.02;10.38;;;;;;;;;;5114714;28;20016;-40
2023/10/02 03:23:43;;;;;;;23.42;10.27;;;;;;;;;;5104209;28;20063;-41
2023/10/02 03:26:37;;;;;;;24.15;10.05;;;;;;;;;;5096360;28;20384;-40
2023/10/02 03:29:04;;;;;;;24.02;10.60;;;;;;;;;;5114731;28;20077;-41
2023/10/02 03:31:37;;;;;;;26.73;10.57;;;;;;;;;;5114411;28;20016;-41
2023/10/02 03:34:27;;;;;;;24.88;10.50;;;;;;;;;;5114713;28;20094;-41
2023/10/02 03:36:52;;;;;;;25.35;10.43;;;;;;;;;;5099061;28;20106;-40
2023/10/02 03:39:23;;;;;;;26.88;10.30;;;;;;;;;;5114573;28;20064;-40
2023/10/02 03:41:55;;;;;;;24.83;9.73;;;;;;;;;;5114515;28;20026;-40
2023/10/02 03:44:22;;;;;;;26.60;10.15;;;;;;;;;;5114544;28;20024;-41
2023/10/02 03:46:48;;;;;;;25.00;10.20;;;;;;;;;;5114200;28;20031;-41
2023/10/02 03:49:15;;;;;;;24.30;10.13;;;;;;;;;;5114113;28;20075;-41
2023/10/02 03:51:40;;;;;;;26.15;10.73;;;;;;;;;;5114363;28;20382;-40
2023/10/02 03:54:20;;;;;;;25.27;10.50;;;;;;;;;;5113832;28;20023;-41
2023/10/02 03:56:49;;;;;;;27.42;10.75;;;;;;;;;;5114160;28;20016;-41
2023/10/02 03:59:17;;;;;;;27.73;11.10;;;;;;;;;;5114335;28;20534;-41
2023/10/02 04:01:43;;;;;;;26.10;11.35;;;;;;;;;;5113975;28;20038;-41
2023/10/02 04:06:42;;;;;;;24.63;10.52;;;;;;;;;;5113979;28;20024;-41
2023/10/02 04:11:39;;;;;;;26.95;10.95;;;;;;;;;;5114131;28;20042;-41
2023/10/02 04:14:17;;;;;;;27.10;10.77;;;;;;;;;;5113783;28;20016;-41
2023/10/02 04:16:43;;;;;;;24.77;10.68;;;;;;;;;;5114175;28;20026;-41
2023/10/02 04:19:08;;;;;;;24.83;10.10;;;;;;;;;;5114127;28;20016;-41
2023/10/02 04:21:34;;;;;;;28.73;11.03;;;;;;;;;;5113812;28;20020;-40
2023/10/02 04:23:59;;;;;;;28.60;11.32;;;;;;;;;;5113858;28;20603;-40
2023/10/02 04:26:24;;;;;;;24.48;10.68;;;;;;;;;;5114426;28;20343;-41
2023/10/02 04:31:35;;;;;;;25.25;11.43;;;;;;;;;;5114059;28;20077;-40
2023/10/02 04:34:14;;;;;;;24.77;10.57;;;;;;;;;;5114327;28;20020;-40
2023/10/02 04:36:43;;;;;;;25.70;11.07;;;;;;;;;;5114263;28;20253;-40
2023/10/02 04:39:51;;;;;;;25.85;11.20;;;;;;;;;;5114027;28;20095;-40
2023/10/02 04:42:15;;;;;;;27.30;11.13;;;;;;;;;;5113531;28;20024;-40
2023/10/02 04:44:44;;;;;;;27.05;11.43;;;;;;;;;;5113949;28;20095;-40
2023/10/02 04:47:17;;;;;;;29.67;11.45;;;;;;;;;;5113889;28;20493;-41
2023/10/02 04:50:33;;;;;;;28.25;11.63;;;;;;;;;;5113338;28;20043;-40
2023/10/02 04:52:53;;;;;;;24.80;10.77;;;;;;;;;;5113405;28;20490;-40
2023/10/02 04:55:12;;;;;;;22.92;10.88;;;;;;;;;;5113337;28;20028;-40
2023/10/02 04:57:37;;;;;;;25.30;10.45;;;;;;;;;;5114072;28;20020;-40
2023/10/02 05:00:19;;;;;;;28.93;10.70;;;;;;;;;;5113486;28;20024;-40
2023/10/02 05:02:47;;;;;;;28.43;10.57;;;;;;;;;;5113775;28;20257;-41
2023/10/02 05:05:14;;;;;;;26.42;11.23;;;;;;;;;;5098069;28;20153;-41
2023/10/02 05:07:41;;;;;;;25.90;10.65;;;;;;;;;;5117082;28;20028;-40
2023/10/02 05:10:06;;;;;;;28.10;11.02;;;;;;;;;;5117655;28;20473;-40
2023/10/02 05:12:35;;;;;;;26.88;10.10;;;;;;;;;;5117662;28;20011;-41
2023/10/02 05:15:07;;;;;;;25.30;10.50;;;;;;;;;;5117307;28;20047;-41
2023/10/02 05:17:44;;;;;;;27.75;11.10;;;;;;;;;;5117336;28;20374;-41
2023/10/02 05:20:13;;;;;;;26.52;11.30;;;;;;;;;;5116975;28;20059;-44
2023/10/02 05:22:40;;;;;;;25.15;10.65;;;;;;;;;;5117209;28;20110;-40
2023/10/02 05:25:07;;;;;;;24.08;10.52;;;;;;;;;;5117489;28;20007;-40
2023/10/02 05:27:33;;;;;;;25.88;11.27;;;;;;;;;;5116800;28;20012;-40
2023/10/02 05:30:12;;;;;;;27.00;10.95;;;;;;;;;;5117011;28;20008;-40
2023/10/02 05:32:38;;;;;;;27.98;11.07;;;;;;;;;;5116759;28;20012;-40
2023/10/02 05:37:41;;;;;;;24.98;11.52;;;;;;;;;;5116972;28;20020;-45
2023/10/02 05:40:53;;;;;;;25.50;11.02;;;;;;;;;;5116909;28;20457;-40
2023/10/02 05:45:38;;;;;;;23.33;10.70;;;;;;;;;;5116876;28;20027;-40
2023/10/02 05:50:53;;;;;;;26.13;10.65;;;;;;;;;;5116669;28;20031;-41
2023/10/02 05:53:19;;;;;;;29.80;10.55;;;;;;;;;;5116663;28;20016;-40
2023/10/02 05:58:31;;;;;;;26.10;11.13;;;;;;;;;;5117165;28;20074;-40
2023/10/02 06:00:57;;;;;;;27.35;11.32;;;;;;;;;;5116429;28;20087;-40
2023/10/02 06:03:22;;;;;;;27.33;11.02;;;;;;;;;;5116204;28;20019;-40
2023/10/02 06:06:10;;;;;;;29.70;11.82;;;;;;;;;;5116157;28;20062;-41
2023/10/02 06:08:34;;;;;;;33.65;11.70;;;;;;;;;;5115888;28;20035;-41
2023/10/02 06:13:46;;;;;;;28.40;11.00;;;;;;;;;;5116579;28;20035;-39
2023/10/02 06:16:11;;;;;;;26.67;10.90;;;;;;;;;;5115553;28;20373;-38
2023/10/02 06:18:38;;;;;;;27.47;11.13;;;;;;;;;;5116016;28;20023;-39
2023/10/02 06:21:04;;;;;;;27.13;10.18;;;;;;;;;;5116080;28;20458;-40
2023/10/02 06:23:37;;;;;;;24.70;10.27;;;;;;;;;;5116097;28;20042;-39
2023/10/02 06:26:03;;;;;;;27.27;10.80;;;;;;;;;;5115958;28;20458;-40
2023/10/02 06:28:28;;;;;;;29.10;10.98;;;;;;;;;;5115656;28;20018;-40
2023/10/02 06:30:54;;;;;;;25.83;11.18;;;;;;;;;;5115785;28;20027;-40
2023/10/02 06:33:21;;;;;;;24.75;10.75;;;;;;;;;;5115774;28;20015;-40
2023/10/02 06:35:56;;;;;;;35.60;11.50;;;;;;;;;;5115816;28;20398;-40
2023/10/02 06:38:22;;;;;;;26.85;10.98;;;;;;;;;;5115739;28;20008;-40
2023/10/02 06:40:56;;;;;;;27.90;11.32;;;;;;;;;;5116025;28;20072;-40
2023/10/02 06:43:32;;;;;;;29.00;11.40;;;;;;;;;;5115653;28;20019;-40
2023/10/02 06:46:07;;;;;;;30.50;11.45;;;;;;;;;;5115286;28;20031;-40
2023/10/02 06:48:39;;;;;;;27.08;11.15;;;;;;;;;;5115092;28;20512;-40
2023/10/02 06:51:04;;;;;;;31.25;11.15;;;;;;;;;;5115388;28;20024;-40
2023/10/02 06:53:30;;;;;;;27.63;11.60;;;;;;;;;;5115173;28;20012;-40
2023/10/02 06:56:07;;;;;;;26.65;11.73;;;;;;;;;;5115104;28;20020;-40
2023/10/02 06:58:46;;;;;;;29.13;12.13;;;;;;;;;;5115542;28;20011;-40
2023/10/02 07:01:11;;;;;;;30.38;11.95;;;;;;;;;;5115512;28;20429;-41
2023/10/02 07:03:39;;;;;;;30.85;12.27;;;;;;;;;;5115009;28;20065;-41
2023/10/02 07:06:07;;;;;;;28.13;11.55;;;;;;;;;;5114918;28;20011;-41
2023/10/02 07:08:34;;;;;;;28.92;11.55;;;;;;;;;;5114775;28;20035;-41
2023/10/02 07:11:01;;;;;;;26.77;11.15;;;;;;;;;;5114632;28;20112;-41
2023/10/02 07:13:26;;;;;;;25.48;11.88;;;;;;;;;;5115097;28;20415;-41
2023/10/02 07:15:55;;;;;;;26.20;11.95;;;;;;;;;;5114588;28;20024;-40
2023/10/02 07:18:36;;;;;;;32.20;12.13;;;;;;;;;;5114896;28;20084;-40
2023/10/02 07:21:03;;;;;;;30.48;12.13;;;;;;;;;;5114921;28;20023;-40
2023/10/02 07:23:30;;;;;;;26.10;11.65;;;;;;;;;;5114632;28;20019;-40
2023/10/02 07:25:56;;;;;;;26.63;11.98;;;;;;;;;;5114887;28;20019;-40
2023/10/02 07:28:21;;;;;;;28.98;11.82;;;;;;;;;;5113723;28;20012;-40
2023/10/02 07:30:50;;;;;;;34.17;13.48;;;;;;;;;;5114358;28;20020;-40
2023/10/02 07:33:18;;;;;;;31.35;12.95;;;;;;;;;;5114390;28;20039;-40
2023/10/02 07:35:52;;;;;;;28.10;12.20;;;;;;;;;;5114913;28;20016;-40
2023/10/02 07:38:18;;;;;;;29.52;12.57;;;;;;;;;;5114601;28;20018;-40
2023/10/02 07:40:48;;;;;;;27.17;11.63;;;;;;;;;;5114547;28;20063;-40
2023/10/02 07:43:18;;;;;;;27.73;12.32;;;;;;;;;;5114504;28;20028;-40
2023/10/02 07:45:43;;;;;;;32.60;12.52;;;;;;;;;;5095893;28;20027;-40
2023/10/02 07:48:11;;;;;;;30.40;12.15;;;;;;;;;;5114309;28;20043;-40
2023/10/02 07:50:41;;;;;;;31.25;12.70;;;;;;;;;;5114665;28;20079;-40
2023/10/02 07:53:06;;;;;;;33.42;12.50;;;;;;;;;;5114430;28;20042;-48
2023/10/02 07:55:39;;;;;;;32.15;12.38;;;;;;;;;;5114404;28;20442;-41
2023/10/02 07:58:04;;;;;;;25.92;11.55;;;;;;;;;;5114373;28;20046;-40
2023/10/02 08:00:39;;;;;;;29.58;12.07;;;;;;;;;;5114039;28;20488;-40
2023/10/02 08:05:58;;;;;;;32.28;12.52;;;;;;;;;;5114846;28;20374;-40
2023/10/02 08:08:25;;;;;;;33.90;12.13;;;;;;;;;;5114194;28;20458;-39
2023/10/02 08:10:51;;;;;;;30.75;12.55;;;;;;;;;;5095591;28;20016;-44
2023/10/02 08:13:35;;;;;;;27.83;12.32;;;;;;;;;;5115029;28;20015;-40
2023/10/02 08:16:06;;;;;;;29.02;11.45;;;;;;;;;;5096302;28;20024;-40
2023/10/02 08:18:31;;;;;;;29.13;12.20;;;;;;;;;;5114185;28;20020;-40
2023/10/02 08:20:56;;;;;;;29.05;11.88;;;;;;;;;;5113845;28;20485;-40
2023/10/02 08:23:21;;;;;;;28.30;12.07;;;;;;;;;;5114390;28;20020;-40
2023/10/02 08:26:02;;;;;;;25.75;11.82;;;;;;;;;;5113695;28;20064;-41
2023/10/02 08:28:33;;;;;;;30.75;12.30;;;;;;;;;;5112933;28;20633;-40
2023/10/02 08:31:01;;;;;;;29.17;11.68;;;;;;;;;;5111523;28;20047;-40
2023/10/02 08:33:27;;;;;;;26.88;11.90;;;;;;;;;;5111506;28;20024;-40
2023/10/02 08:35:52;;;;;;;30.67;12.15;;;;;;;;;;5111753;28;20012;-40
2023/10/02 08:38:25;;;;;;;31.38;13.15;;;;;;;;;;5111526;28;20008;-40
2023/10/02 08:41:00;;;;;;;28.85;12.98;;;;;;;;;;5115927;28;20055;-40
2023/10/02 08:43:29;;;;;;;31.83;12.50;;;;;;;;;;5116543;28;20470;-40
2023/10/02 08:45:55;;;;;;;29.42;13.20;;;;;;;;;;5117570;28;20020;-40
2023/10/02 08:48:21;;;;;;;31.95;12.85;;;;;;;;;;5117946;28;20054;-39
2023/10/02 08:50:50;;;;;;;32.50;13.30;;;;;;;;;;5117746;28;20054;-40
2023/10/02 08:53:22;;;;;;;31.85;13.73;;;;;;;;;;5117468;28;20027;-40
2023/10/02 08:56:21;;;;;;;33.30;14.27;;;;;;;;;;5117779;28;20453;-40
2023/10/02 08:58:46;;;;;;;37.60;14.80;;;;;;;;;;5112424;28;20036;-39
2023/10/02 09:03:46;;;;;;;32.33;13.70;;;;;;;;;;5117737;28;20031;-40
2023/10/02 09:06:32;;;;;;;34.95;15.27;;;;;;;;;;5117538;28;20023;-40
2023/10/02 09:09:16;;;;;;;34.17;15.38;;;;;;;;;;5117501;28;20469;-40
2023/10/02 09:11:42;;;;;;;36.15;15.88;;;;;;;;;;5117401;28;20055;-40
2023/10/02 09:16:47;;;;;;;38.85;16.73;;;;;;;;;;5117386;28;20045;-40
2023/10/02 09:19:31;;;;;;;37.45;16.30;;;;;;;;;;5116997;28;20023;-40
2023/10/02 09:22:11;;;;;;;39.70;17.42;;;;;;;;;;5117019;28;20023;-39
2023/10/02 09:24:37;;;;;;;48.20;18.67;;;;;;;;;;5117227;28;20057;-41
2023/10/02 09:27:26;;;;;;;47.88;19.90;;;;;;;;;;5116886;28;20034;-40
2023/10/02 09:30:41;;;;;;;45.85;18.67;;;;;;;;;;5117032;28;20028;-40
2023/10/02 09:32:49;;;;;;;42.90;18.05;;;;;;;;;;5105768;28;20024;-40
2023/10/02 09:35:22;;;;;;;41.10;17.83;;;;;;;;;;5117032;28;20537;-40
2023/10/02 09:37:55;;;;;;;40.03;17.77;;;;;;;;;;5117113;28;20012;-40
2023/10/02 09:40:28;;;;;;;41.40;18.23;;;;;;;;;;5116915;28;20024;-40
2023/10/02 09:43:00;;;;;;;;;;;;;;;;;;5117180;28;20098;-40
2023/10/02 09:45:35;;;;;;;42.50;17.80;;;;;;;;;;5116765;28;19904;-40
2023/10/02 09:48:05;;;;;;;42.95;18.80;;;;;;;;;;5116433;28;20043;-39
2023/10/02 09:50:32;;;;;;;41.03;17.70;;;;;;;;;;5115770;28;20023;-40
2023/10/02 09:53:08;;;;;;;36.92;18.63;;;;;;;;;;5116618;28;20051;-41
2023/10/02 09:55:40;;;;;;;37.03;16.90;;;;;;;;;;5116518;28;20012;-41
2023/10/02 09:58:26;;;;;;;42.00;17.15;;;;;;;;;;5116204;28;20077;-40
2023/10/02 10:01:21;;;;;;;32.20;15.95;;;;;;;;;;5116554;28;20399;-40
2023/10/02 10:03:49;;;;;;;36.72;16.55;;;;;;;;;;5116473;28;20023;-41
2023/10/02 10:06:19;;;;;;;30.98;15.93;;;;;;;;;;5116137;28;20031;-40
2023/10/02 10:09:18;;;;;;;32.88;15.90;;;;;;;;;;5116087;28;20019;-41
2023/10/02 10:11:44;;;;;;;37.28;15.90;;;;;;;;;;5115048;28;20031;-41
2023/10/02 10:14:37;;;;;;;38.70;16.25;;;;;;;;;;5115959;28;20454;-41
2023/10/02 10:17:27;;;;;;;35.15;16.08;;;;;;;;;;5115440;28;20024;-41
2023/10/02 10:20:18;;;;;;;33.95;15.10;;;;;;;;;;5108234;28;20027;-40
2023/10/02 10:22:50;;;;;;;31.52;14.55;;;;;;;;;;5115786;28;20024;-42
2023/10/02 10:27:58;;;;;;;28.23;13.35;;;;;;;;;;5115825;28;20493;-40
2023/10/02 10:30:33;;;;;;;29.65;13.38;;;;;;;;;;5115808;28;20034;-42
2023/10/02 10:33:13;;;;;;;26.92;13.10;;;;;;;;;;5115571;28;20035;-42
2023/10/02 10:35:49;;;;;;;30.80;13.57;;;;;;;;;;5115811;28;20016;-41
2023/10/02 10:38:25;;;;;;;31.63;13.43;;;;;;;;;;5115487;28;20020;-42
2023/10/02 10:41:06;;;;;;;34.22;13.75;;;;;;;;;;5115304;28;20024;-41
2023/10/02 10:46:19;;;;;;;29.48;13.50;;;;;;;;;;5115812;28;20100;-41
2023/10/02 10:48:53;;;;;;;28.08;13.00;;;;;;;;;;5115323;28;20039;-42
2023/10/02 10:51:21;;;;;;;28.02;12.73;;;;;;;;;;5115426;28;20034;-41
2023/10/02 10:53:54;;;;;;;33.47;13.10;;;;;;;;;;5115380;28;20339;-41
2023/10/02 10:56:19;;;;;;;29.35;12.93;;;;;;;;;;5116209;28;20449;-41
2023/10/02 10:58:51;;;;;;;31.58;12.93;;;;;;;;;;5114887;28;20045;-42
2023/10/02 11:01:17;;;;;;;29.10;11.93;;;;;;;;;;5115075;28;20381;-41
2023/10/02 11:03:43;;;;;;;27.00;12.07;;;;;;;;;;5114908;28;20015;-41
2023/10/02 11:06:10;;;;;;;30.85;12.18;;;;;;;;;;5115117;28;20249;-41
2023/10/02 11:08:37;;;;;;;28.63;11.60;;;;;;;;;;5115463;28;20025;-41
2023/10/02 11:11:30;;;;;;;28.15;12.30;;;;;;;;;;5115070;28;20016;-41
2023/10/02 11:13:54;;;;;;;31.83;12.38;;;;;;;;;;5114145;28;20020;-41
2023/10/02 11:16:36;;;;;;;29.35;12.10;;;;;;;;;;5096508;28;20035;-41
2023/10/02 11:19:10;;;;;;;30.35;11.80;;;;;;;;;;5115000;28;20374;-41
2023/10/02 11:21:45;;;;;;;25.30;11.25;;;;;;;;;;5115194;28;20016;-41
2023/10/02 11:24:22;;;;;;;30.88;12.13;;;;;;;;;;5114589;28;20019;-41
2023/10/02 11:26:48;;;;;;;25.45;11.48;;;;;;;;;;5114837;28;20474;-41
2023/10/02 11:29:22;;;;;;;25.25;10.45;;;;;;;;;;5115396;28;20016;-41
2023/10/02 11:32:15;;;;;;;24.33;11.25;;;;;;;;;;5114689;28;20016;-41
2023/10/02 11:34:43;;;;;;;28.83;10.25;;;;;;;;;;5114286;28;20024;-41
2023/10/02 11:37:11;;;;;;;23.83;9.47;;;;;;;;;;5114480;28;20012;-41
2023/10/02 11:39:36;;;;;;;25.92;10.45;;;;;;;;;;5114976;28;20023;-40
2023/10/02 11:42:05;;;;;;;19.15;8.98;;;;;;;;;;5114615;28;20012;-41
2023/10/02 11:44:31;;;;;;;21.48;8.95;;;;;;;;;;5114351;28;20067;-41
2023/10/02 11:46:56;;;;;;;20.38;8.50;;;;;;;;;;5114575;28;20019;-41
2023/10/02 11:49:21;;;;;;;25.13;9.17;;;;;;;;;;5114690;28;20381;-41
2023/10/02 11:51:46;;;;;;;20.07;9.07;;;;;;;;;;5114437;28;20016;-41
2023/10/02 11:54:13;;;;;;;22.50;9.13;;;;;;;;;;5114491;28;20271;-41
2023/10/02 11:56:38;;;;;;;22.67;8.90;;;;;;;;;;5114409;28;20015;-42
2023/10/02 11:59:04;;;;;;;20.52;8.82;;;;;;;;;;5114365;28;20472;-42
2023/10/02 12:01:29;;;;;;;23.98;9.23;;;;;;;;;;5114040;28;20031;-41
2023/10/02 12:03:57;;;;;;;18.13;8.43;;;;;;;;;;5114390;28;20488;-41
2023/10/02 12:06:28;;;;;;;16.45;7.60;;;;;;;;;;5114296;28;20032;-41
2023/10/02 12:08:56;;;;;;;19.23;7.75;;;;;;;;;;5113910;28;20051;-41
2023/10/02 12:11:24;;;;;;;18.83;8.90;;;;;;;;;;5114098;28;20473;-41
2023/10/02 12:13:50;;;;;;;17.13;7.80;;;;;;;;;;5113648;28;20434;-41
2023/10/02 12:16:15;;;;;;;18.70;8.20;;;;;;;;;;5113938;28;20046;-49
2023/10/02 12:18:41;;;;;;;23.33;9.03;;;;;;;;;;5114418;28;20144;-41
2023/10/02 12:21:11;;;;;;;20.88;8.40;;;;;;;;;;5113851;28;20355;-41
2023/10/02 12:23:39;;;;;;;17.23;8.50;;;;;;;;;;5113740;28;20028;-41
2023/10/02 12:26:05;;;;;;;18.80;8.10;;;;;;;;;;5114605;28;20015;-41
2023/10/02 12:28:30;;;;;;;19.42;7.85;;;;;;;;;;5114039;28;20062;-41
2023/10/02 12:30:55;;;;;;;17.43;8.13;;;;;;;;;;5095493;28;20382;-41
2023/10/02 12:33:20;;;;;;;19.60;8.40;;;;;;;;;;5114287;28;20064;-41
2023/10/02 12:35:46;;;;;;;16.73;8.33;;;;;;;;;;5114002;28;20414;-41
2023/10/02 12:38:13;;;;;;;18.63;8.90;;;;;;;;;;5113764;28;20485;-41
2023/10/02 12:40:39;;;;;;;20.52;8.68;;;;;;;;;;5113930;28;20107;-41
2023/10/02 12:43:05;;;;;;;17.75;7.90;;;;;;;;;;5113631;28;20020;-41
2023/10/02 12:45:35;;;;;;;22.58;8.57;;;;;;;;;;5113885;28;20096;-41
2023/10/02 12:48:09;;;;;;;19.17;8.82;;;;;;;;;;5113726;28;20113;-40
2023/10/02 12:50:38;;;;;;;19.92;9.43;;;;;;;;;;5113793;28;20415;-41
2023/10/02 12:53:04;;;;;;;22.58;9.70;;;;;;;;;;5113842;28;20415;-41
2023/10/02 12:55:30;;;;;;;21.38;9.23;;;;;;;;;;5113777;28;20095;-40
2023/10/02 12:57:55;;;;;;;20.95;9.13;;;;;;;;;;5113510;28;20022;-40
2023/10/02 13:00:20;;;;;;;21.27;8.87;;;;;;;;;;5113793;28;20026;-41
2023/10/02 13:02:46;;;;;;;20.93;8.73;;;;;;;;;;5114015;28;20067;-41
2023/10/02 13:05:12;;;;;;;23.45;8.60;;;;;;;;;;5113685;28;20302;-41
2023/10/02 13:07:37;;;;;;;18.50;8.80;;;;;;;;;;5113441;28;20382;-41
2023/10/02 13:10:04;;;;;;;22.70;7.83;;;;;;;;;;5113280;28;20023;-41
2023/10/02 13:12:31;;;;;;;18.08;8.05;;;;;;;;;;5113673;28;20091;-41
2023/10/02 13:14:57;;;;;;;23.92;8.10;;;;;;;;;;5113199;28;20011;-42
2023/10/02 13:17:23;;;;;;;20.48;7.95;;;;;;;;;;5113551;28;20046;-41
2023/10/02 13:19:48;;;;;;;17.13;7.67;;;;;;;;;;5113352;28;20019;-41
2023/10/02 13:22:14;;;;;;;22.23;7.77;;;;;;;;;;5113602;28;20016;-41
2023/10/02 13:24:42;;;;;;;19.17;8.25;;;;;;;;;;5113549;28;20051;-41
2023/10/02 13:27:07;;;;;;;19.02;8.68;;;;;;;;;;5116164;28;20019;-41
2023/10/02 13:29:34;;;;;;;20.13;8.50;;;;;;;;;;5116869;28;20567;-41
2023/10/02 13:32:01;;;;;;;18.73;8.40;;;;;;;;;;5116609;28;20027;-42
2023/10/02 13:34:26;;;;;;;20.13;8.63;;;;;;;;;;5117036;28;20065;-41
2023/10/02 13:36:51;;;;;;;18.53;8.53;;;;;;;;;;5117032;28;20450;-41
2023/10/02 13:39:17;;;;;;;22.07;9.13;;;;;;;;;;5116759;28;20254;-42
2023/10/02 13:41:43;;;;;;;20.83;8.77;;;;;;;;;;5116851;28;20091;-42
2023/10/02 13:44:09;;;;;;;22.43;9.03;;;;;;;;;;5116605;28;20046;-41
2023/10/02 13:46:38;;;;;;;18.10;8.27;;;;;;;;;;5116860;28;20469;-42
2023/10/02 13:49:04;;;;;;;18.75;8.60;;;;;;;;;;5116358;28;20040;-42
2023/10/02 13:51:29;;;;;;;21.05;9.45;;;;;;;;;;5116603;28;20039;-46
2023/10/02 13:53:55;;;;;;;20.08;8.65;;;;;;;;;;5116923;28;20008;-42
2023/10/02 13:56:25;;;;;;;21.80;9.00;;;;;;;;;;5116606;28;20027;-41
2023/10/02 13:58:51;;;;;;;23.23;9.18;;;;;;;;;;5116209;28;20023;-42
2023/10/02 14:01:19;;;;;;;22.40;9.38;;;;;;;;;;5116065;28;20016;-42
2023/10/02 14:03:45;;;;;;;20.83;8.95;;;;;;;;;;5116415;28;20015;-41
2023/10/02 14:06:12;;;;;;;21.60;9.32;;;;;;;;;;5116102;28;20048;-41
2023/10/02 14:08:39;;;;;;;19.08;8.98;;;;;;;;;;5116074;28;20038;-41
2023/10/02 14:11:04;;;;;;;20.73;8.35;;;;;;;;;;5116039;28;20355;-41
2023/10/02 14:13:31;;;;;;;21.95;8.90;;;;;;;;;;5115954;28;20069;-41
2023/10/02 14:16:01;;;;;;;22.75;9.45;;;;;;;;;;5116459;28;20007;-41
2023/10/02 14:18:28;;;;;;;20.67;9.48;;;;;;;;;;5115028;28;20054;-41
2023/10/02 14:21:05;;;;;;;22.58;8.95;;;;;;;;;;5116636;28;20076;-41
2023/10/02 14:23:30;;;;;;;21.52;9.23;;;;;;;;;;5115984;28;20454;-41
2023/10/02 14:25:56;;;;;;;22.67;9.33;;;;;;;;;;5115704;28;20027;-42
2023/10/02 14:28:23;;;;;;;22.33;9.38;;;;;;;;;;5115708;28;20241;-41
2023/10/02 14:30:48;;;;;;;21.73;9.23;;;;;;;;;;5115482;28;20012;-42
2023/10/02 14:33:14;;;;;;;22.43;9.07;;;;;;;;;;5115577;28;20016;-41
2023/10/02 14:35:40;;;;;;;23.50;10.23;;;;;;;;;;5115619;28;20254;-41
2023/10/02 14:38:05;;;;;;;25.05;10.35;;;;;;;;;;5115574;28;20381;-41
2023/10/02 14:40:30;;;;;;;27.57;10.03;;;;;;;;;;5115391;28;20020;-43
2023/10/02 14:42:56;;;;;;;21.10;9.07;;;;;;;;;;5115940;28;20020;-41
2023/10/02 14:45:26;;;;;;;20.75;9.18;;;;;;;;;;5115352;28;20031;-41
2023/10/02 14:47:53;;;;;;;24.58;9.88;;;;;;;;;;5115112;28;20040;-40
2023/10/02 14:50:19;;;;;;;24.80;10.27;;;;;;;;;;5115475;28;20020;-41
2023/10/02 14:52:44;;;;;;;25.75;10.15;;;;;;;;;;5115451;28;20022;-41
2023/10/02 14:55:16;;;;;;;23.70;10.63;;;;;;;;;;5115742;28;20488;-41
2023/10/02 14:57:43;;;;;;;21.83;10.27;;;;;;;;;;5115090;28;20016;-41
2023/10/02 15:00:09;;;;;;;25.83;10.60;;;;;;;;;;5114981;28;20041;-41
2023/10/02 15:02:34;;;;;;;23.05;10.38;;;;;;;;;;5115200;28;20016;-41
2023/10/02 15:05:00;;;;;;;28.17;10.32;;;;;;;;;;5115545;28;20015;-41
2023/10/02 15:07:25;;;;;;;20.38;10.05;;;;;;;;;;5115768;28;20034;-41
2023/10/02 15:09:51;;;;;;;22.70;9.98;;;;;;;;;;5115471;28;20023;-41
2023/10/02 15:12:17;;;;;;;24.60;10.50;;;;;;;;;;5115003;28;20055;-41
2023/10/02 15:14:42;;;;;;;25.92;10.75;;;;;;;;;;5114790;28;20020;-41